createdAt,value
2018-10-05T00:00:59.741Z,13.03
2018-10-05T00:03:28.835Z,13.10
2018-10-05T00:05:57.625Z,12.03
2018-10-05T00:08:27.141Z,11.25
2018-10-05T00:10:56.713Z,11.50
2018-10-05T00:13:26.018Z,12.88
2018-10-05T00:15:55.313Z,13.20
2018-10-05T00:18:25.084Z,12.58
2018-10-05T00:20:54.254Z,11.93
2018-10-05T00:23:23.377Z,12.87
2018-10-05T00:25:52.516Z,13.05
2018-10-05T00:28:21.683Z,12.55
2018-10-05T00:30:51.109Z,12.35
2018-10-05T00:33:20.089Z,13.15
2018-10-05T00:35:49.237Z,11.65
2018-10-05T00:38:18.817Z,13.00
2018-10-05T00:40:48.011Z,12.05
2018-10-05T00:43:16.979Z,12.65
2018-10-05T00:45:46.146Z,12.20
2018-10-05T00:48:15.175Z,11.75
2018-10-05T00:50:44.377Z,11.18
2018-10-05T00:53:13.549Z,11.83
2018-10-05T00:55:43.577Z,11.40
2018-10-05T00:58:12.841Z,12.78
2018-10-05T01:00:41.957Z,11.88
2018-10-05T01:03:11.552Z,12.18
2018-10-05T01:05:40.579Z,12.00
2018-10-05T01:08:09.689Z,11.85
2018-10-05T01:10:38.712Z,11.50
2018-10-05T01:13:08.035Z,12.80
2018-10-05T01:15:37.182Z,13.20
2018-10-05T01:18:06.431Z,12.45
2018-10-05T01:20:36.947Z,12.78
2018-10-05T01:23:07.696Z,12.33
2018-10-05T01:25:41.715Z,12.23
2018-10-05T01:28:12.406Z,12.40
2018-10-05T01:30:42.912Z,13.18
2018-10-05T01:33:17.130Z,11.55
2018-10-05T01:35:48.197Z,11.88
2018-10-05T01:38:19.891Z,10.50
2018-10-05T01:40:50.777Z,11.18
2018-10-05T01:43:22.080Z,10.80
2018-10-05T01:45:52.138Z,10.85
2018-10-05T01:48:24.841Z,11.97
2018-10-05T01:51:16.042Z,11.50
2018-10-05T01:53:47.585Z,11.10
2018-10-05T01:59:50.547Z,10.50
2018-10-05T02:02:35.216Z,10.43
2018-10-05T02:05:04.554Z,11.08
2018-10-05T02:07:33.514Z,10.05
2018-10-05T02:10:02.744Z,8.68
2018-10-05T02:12:33.080Z,10.00
2018-10-05T02:15:02.185Z,10.03
2018-10-05T02:17:31.251Z,9.65
2018-10-05T02:20:00.441Z,10.85
2018-10-05T02:22:29.594Z,9.68
2018-10-05T02:24:58.728Z,10.38
2018-10-05T02:27:29.097Z,9.45
2018-10-05T02:30:12.638Z,9.50
2018-10-05T02:32:50.484Z,10.68
2018-10-05T02:35:21.965Z,10.32
2018-10-05T02:37:54.804Z,10.20
2018-10-05T02:40:23.971Z,9.75
2018-10-05T02:42:54.447Z,10.43
2018-10-05T02:45:23.437Z,11.50
2018-10-05T02:47:56.521Z,10.80
2018-10-05T02:50:25.879Z,10.55
2018-10-05T02:52:55.587Z,11.05
2018-10-05T02:55:25.208Z,11.35
2018-10-05T02:57:54.940Z,11.28
2018-10-05T03:00:36.398Z,11.20
2018-10-05T03:03:05.261Z,10.00
2018-10-05T03:05:34.425Z,9.98
2018-10-05T03:08:03.479Z,11.18
2018-10-05T03:10:32.729Z,10.50
2018-10-05T03:13:04.201Z,10.82
2018-10-05T03:15:38.170Z,10.15
2018-10-05T03:18:08.952Z,10.15
2018-10-05T03:20:38.320Z,10.32
2018-10-05T03:23:07.246Z,9.18
2018-10-05T03:25:36.645Z,11.75
2018-10-05T03:28:05.985Z,10.35
2018-10-05T03:30:35.175Z,11.10
2018-10-05T03:33:04.279Z,10.32
2018-10-05T03:35:33.874Z,11.08
2018-10-05T03:38:03.131Z,11.60
2018-10-05T03:40:32.321Z,10.90
2018-10-05T03:43:01.513Z,10.30
2018-10-05T03:45:31.119Z,10.28
2018-10-05T03:48:00.480Z,10.82
2018-10-05T03:50:29.632Z,11.70
2018-10-05T03:52:58.626Z,11.53
2018-10-05T03:55:27.699Z,11.85
2018-10-05T03:57:57.046Z,12.33
2018-10-05T04:00:26.471Z,11.33
2018-10-05T04:02:57.137Z,11.25
2018-10-05T04:05:26.242Z,12.30
2018-10-05T04:07:55.245Z,12.25
2018-10-05T04:10:25.009Z,11.65
2018-10-05T04:12:54.202Z,11.10
2018-10-05T04:15:23.416Z,10.90
2018-10-05T04:17:52.407Z,12.03
2018-10-05T04:20:21.825Z,12.93
2018-10-05T04:22:51.138Z,11.48
2018-10-05T04:25:20.810Z,11.50
2018-10-05T04:27:50.049Z,12.20
2018-10-05T04:30:19.001Z,12.45
2018-10-05T04:32:48.233Z,12.05
2018-10-05T04:35:17.439Z,12.28
2018-10-05T04:37:46.374Z,12.90
2018-10-05T04:40:15.320Z,13.08
2018-10-05T04:42:43.736Z,12.70
2018-10-05T04:45:12.141Z,14.33
2018-10-05T04:47:40.724Z,12.50
2018-10-05T04:50:09.184Z,12.58
2018-10-05T04:52:37.596Z,14.23
2018-10-05T04:55:06.265Z,12.50
2018-10-05T04:57:34.730Z,13.00
2018-10-05T05:00:03.362Z,12.80
2018-10-05T05:02:31.792Z,12.05
2018-10-05T05:05:00.125Z,12.53
2018-10-05T05:07:28.560Z,11.18
2018-10-05T05:09:56.929Z,12.43
2018-10-05T05:12:25.332Z,11.43
2018-10-05T05:14:53.716Z,10.98
2018-10-05T05:17:22.193Z,11.48
2018-10-05T05:19:50.660Z,11.50
2018-10-05T05:22:19.152Z,12.53
2018-10-05T05:24:47.736Z,10.98
2018-10-05T05:27:16.100Z,10.90
2018-10-05T05:29:44.484Z,10.35
2018-10-05T05:32:12.940Z,10.58
2018-10-05T05:34:41.304Z,12.20
2018-10-05T05:37:09.711Z,10.63
2018-10-05T05:39:38.149Z,11.10
2018-10-05T05:42:06.694Z,11.83
2018-10-05T05:44:35.076Z,10.08
2018-10-05T05:47:03.416Z,9.90
2018-10-05T05:49:32.079Z,11.63
2018-10-05T05:52:00.503Z,10.10
2018-10-05T05:54:28.957Z,11.18
2018-10-05T05:56:58.320Z,11.03
2018-10-05T05:59:26.984Z,9.35
2018-10-05T06:01:55.660Z,10.03
2018-10-05T06:04:24.069Z,8.23
2018-10-05T06:06:52.553Z,9.35
2018-10-05T06:09:21.220Z,9.48
2018-10-05T06:11:49.560Z,9.93
2018-10-05T06:14:17.976Z,9.30
2018-10-05T06:16:46.373Z,10.15
2018-10-05T06:19:14.829Z,10.28
2018-10-05T06:21:43.308Z,9.60
2018-10-05T06:24:11.716Z,9.30
2018-10-05T06:26:40.692Z,10.15
2018-10-05T06:29:09.105Z,10.50
2018-10-05T06:31:37.588Z,9.93
2018-10-05T06:34:06.040Z,8.30
2018-10-05T06:36:34.505Z,9.90
2018-10-05T06:39:02.957Z,9.75
2018-10-05T06:42:36.023Z,9.30
2018-10-05T06:45:04.399Z,8.90
2018-10-05T06:47:32.837Z,8.78
2018-10-05T06:50:01.196Z,9.48
2018-10-05T06:52:29.593Z,8.93
2018-10-05T06:54:57.972Z,7.97
2018-10-05T06:57:26.370Z,8.08
2018-10-05T06:59:55.707Z,8.68
2018-10-05T07:02:24.138Z,9.20
2018-10-05T07:04:52.532Z,8.38
2018-10-05T07:07:21.204Z,7.53
2018-10-05T07:09:49.556Z,8.45
2018-10-05T07:12:17.960Z,7.78
2018-10-05T07:14:46.382Z,6.83
2018-10-05T07:17:15.394Z,7.77
2018-10-05T07:19:43.980Z,6.80
2018-10-05T07:22:12.393Z,6.90
2018-10-05T07:24:40.780Z,6.70
2018-10-05T07:27:09.184Z,6.53
2018-10-05T07:29:38.548Z,7.30
2018-10-05T07:32:07.144Z,6.43
2018-10-05T07:34:35.520Z,7.00
2018-10-05T07:37:04.039Z,6.23
2018-10-05T07:39:32.282Z,6.17
2018-10-05T07:42:00.687Z,5.77
2018-10-05T07:44:29.115Z,5.93
2018-10-05T07:46:57.874Z,6.27
2018-10-05T07:49:26.323Z,6.63
2018-10-05T07:51:54.682Z,6.33
2018-10-05T07:54:23.748Z,5.97
2018-10-05T07:56:52.176Z,5.20
2018-10-05T07:59:20.940Z,5.67
2018-10-05T08:01:49.274Z,6.67
2018-10-05T08:04:17.704Z,5.50
2018-10-05T08:06:46.064Z,5.90
2018-10-05T08:09:14.460Z,5.80
2018-10-05T08:11:42.787Z,5.87
2018-10-05T08:14:11.212Z,5.90
2018-10-05T08:16:39.727Z,6.97
2018-10-05T08:19:08.184Z,6.83
2018-10-05T08:21:36.608Z,6.67
2018-10-05T08:24:05.060Z,6.17
2018-10-05T08:26:33.416Z,6.77
2018-10-05T08:29:01.782Z,6.13
2018-10-05T08:31:30.208Z,5.93
2018-10-05T08:33:58.719Z,6.63
2018-10-05T08:36:27.080Z,6.33
2018-10-05T08:38:55.524Z,6.17
2018-10-05T08:41:23.841Z,4.90
2018-10-05T08:43:52.310Z,6.50
2018-10-05T08:46:20.768Z,5.90
2018-10-05T08:48:49.145Z,6.30
2018-10-05T08:51:17.548Z,6.07
2018-10-05T08:53:45.988Z,6.70
2018-10-05T08:56:14.360Z,5.90
2018-10-05T08:58:43.784Z,5.60
2018-10-05T09:01:12.163Z,6.20
2018-10-05T09:03:40.548Z,5.80
2018-10-05T09:06:08.924Z,6.97
2018-10-05T09:08:37.296Z,5.97
2018-10-05T09:11:05.941Z,6.27
2018-10-05T09:13:34.380Z,5.50
2018-10-05T09:16:02.748Z,6.67
2018-10-05T09:18:31.436Z,5.87
2018-10-05T09:20:59.802Z,6.23
2018-10-05T09:23:28.221Z,4.97
2018-10-05T09:25:56.672Z,6.63
2018-10-05T09:28:25.165Z,6.27
2018-10-05T09:30:53.521Z,5.90
2018-10-05T09:33:21.901Z,5.60
2018-10-05T09:35:50.283Z,5.83
2018-10-05T09:38:18.684Z,5.53
2018-10-05T09:40:47.044Z,5.27
2018-10-05T09:43:15.610Z,5.00
2018-10-05T09:45:44.028Z,4.47
2018-10-05T09:48:12.375Z,5.10
2018-10-05T09:50:40.744Z,5.90
2018-10-05T09:53:09.212Z,5.20
2018-10-05T09:55:37.836Z,5.10
2018-10-05T09:58:06.446Z,5.17
2018-10-05T10:00:40.416Z,5.07
2018-10-05T10:03:14.311Z,5.27
2018-10-05T10:05:42.980Z,4.80
2018-10-05T10:08:11.438Z,5.20
2018-10-05T10:10:39.934Z,5.30
2018-10-05T10:13:08.556Z,5.03
2018-10-05T10:15:36.954Z,4.00
2018-10-05T10:18:05.688Z,4.60
2018-10-05T10:20:34.336Z,4.17
2018-10-05T10:23:02.805Z,4.97
2018-10-05T10:25:31.329Z,4.53
2018-10-05T10:27:59.983Z,4.77
2018-10-05T10:30:28.837Z,5.20
2018-10-05T10:32:57.333Z,4.50
2018-10-05T10:35:26.020Z,3.53
2018-10-05T10:37:54.697Z,4.20
2018-10-05T10:40:23.780Z,3.97
2018-10-05T10:42:52.502Z,4.40
2018-10-05T10:45:21.079Z,4.27
2018-10-05T10:47:49.720Z,4.90
2018-10-05T10:50:20.013Z,4.50
2018-10-05T10:52:48.727Z,4.47
2018-10-05T10:55:17.376Z,4.67
2018-10-05T11:12:33.987Z,4.27
2018-10-05T11:15:02.624Z,4.07
2018-10-05T11:17:31.268Z,3.67
2018-10-05T11:19:59.936Z,4.70
2018-10-05T11:22:28.416Z,4.00
2018-10-05T11:24:57.059Z,4.27
2018-10-05T11:27:25.586Z,4.03
2018-10-05T11:29:54.161Z,3.90
2018-10-05T11:32:25.678Z,3.70
2018-10-05T11:34:54.342Z,3.47
2018-10-05T11:37:22.738Z,4.40
2018-10-05T11:39:51.383Z,4.00
2018-10-05T11:49:18.456Z,4.57
2018-10-05T11:51:47.573Z,3.60
2018-10-05T11:54:16.428Z,4.23
2018-10-05T11:56:45.062Z,3.50
2018-10-05T11:59:13.887Z,3.23
2018-10-05T12:01:42.579Z,4.20
2018-10-05T12:04:12.861Z,3.65
2018-10-05T12:09:10.100Z,4.00
2018-10-05T12:14:07.172Z,3.30
2018-10-05T12:21:31.177Z,4.35
2018-10-05T12:23:59.570Z,4.10
2018-10-05T12:26:28.702Z,4.60
2018-10-05T12:28:57.155Z,4.20
2018-10-05T12:31:25.584Z,3.47
2018-10-05T12:33:54.009Z,3.20
2018-10-05T12:36:22.345Z,3.27
2018-10-05T12:38:50.737Z,3.60
2018-10-05T12:41:19.157Z,3.20
2018-10-05T12:43:47.589Z,3.17
2018-10-05T12:46:15.972Z,2.95
2018-10-05T12:48:44.712Z,6.07
2018-10-05T12:51:13.086Z,2.90
2018-10-05T12:53:41.578Z,3.30
2018-10-05T12:56:10.018Z,3.40
2018-10-05T12:58:38.955Z,3.83
2018-10-05T13:01:08.547Z,3.00
2018-10-05T13:03:37.047Z,2.83
2018-10-05T13:06:05.510Z,3.60
2018-10-05T13:08:33.960Z,3.40
2018-10-05T13:11:02.366Z,3.53
2018-10-05T13:13:30.920Z,3.60
2018-10-05T13:15:59.419Z,3.70
2018-10-05T13:18:27.760Z,3.30
2018-10-05T13:20:57.912Z,3.63
2018-10-05T13:23:26.585Z,3.10
2018-10-05T13:25:55.441Z,3.90
2018-10-05T13:28:23.924Z,3.57
2018-10-05T13:30:52.708Z,3.20
2018-10-05T13:33:21.299Z,4.27
2018-10-05T13:35:50.277Z,3.23
2018-10-05T13:38:19.262Z,3.80
2018-10-05T13:40:47.948Z,3.17
2018-10-05T13:43:16.600Z,3.40
2018-10-05T13:45:46.931Z,3.53
2018-10-05T13:48:15.367Z,3.50
2018-10-05T13:50:43.882Z,2.97
2018-10-05T13:53:12.324Z,3.10
2018-10-05T13:55:41.096Z,3.27
2018-10-05T13:58:09.732Z,2.53
2018-10-05T14:00:39.510Z,3.00
2018-10-05T14:03:08.313Z,3.63
2018-10-05T14:05:36.916Z,3.03
2018-10-05T14:08:05.512Z,2.80
2018-10-05T14:10:34.374Z,3.87
2018-10-05T14:13:03.011Z,2.77
2018-10-05T14:15:31.548Z,2.73
2018-10-05T14:17:59.986Z,2.83
2018-10-05T14:20:30.253Z,2.60
2018-10-05T14:22:58.878Z,2.90
2018-10-05T14:25:27.447Z,2.73
2018-10-05T14:27:55.926Z,2.80
2018-10-05T14:30:24.405Z,2.80
2018-10-05T14:32:52.989Z,2.87
2018-10-05T14:35:21.789Z,2.77
2018-10-05T14:37:51.309Z,2.80
2018-10-05T14:40:20.086Z,2.80
2018-10-05T14:42:48.678Z,3.00
2018-10-05T14:45:17.492Z,2.80
2018-10-05T14:47:46.782Z,2.90
2018-10-05T14:50:15.549Z,3.40
2018-10-05T14:52:44.355Z,3.33
2018-10-05T14:55:13.097Z,2.70
2018-10-05T14:57:42.985Z,3.10
2018-10-05T15:00:11.738Z,3.30
2018-10-05T15:02:42.804Z,3.17
2018-10-05T15:05:11.725Z,3.10
2018-10-05T15:07:40.244Z,3.50
2018-10-05T15:10:08.748Z,3.23
2018-10-05T15:12:38.145Z,3.47
2018-10-05T15:15:06.942Z,3.20
2018-10-05T15:17:35.402Z,2.97
2018-10-05T15:20:04.842Z,2.80
2018-10-05T15:22:33.740Z,3.53
2018-10-05T15:25:02.336Z,2.70
2018-10-05T15:27:30.945Z,3.27
2018-10-05T15:30:00.082Z,2.87
2018-10-05T15:32:28.941Z,3.53
2018-10-05T15:34:57.436Z,4.00
2018-10-05T15:37:26.041Z,2.70
2018-10-05T15:39:54.905Z,2.80
2018-10-05T15:42:23.593Z,3.00
2018-10-05T15:44:52.505Z,3.07
2018-10-05T15:47:21.305Z,2.70
2018-10-05T15:50:52.913Z,3.20
2018-10-05T15:53:21.572Z,2.90
2018-10-05T15:55:50.345Z,2.70
2018-10-05T15:58:19.200Z,2.37
2018-10-05T16:00:47.937Z,2.80
2018-10-05T16:03:16.400Z,3.37
2018-10-05T16:05:45.556Z,3.60
2018-10-05T16:08:14.946Z,3.20
2018-10-05T16:10:43.976Z,2.83
2018-10-05T16:13:13.040Z,3.77
2018-10-05T16:15:41.612Z,3.03
2018-10-05T16:18:10.212Z,3.00
2018-10-05T16:20:38.703Z,4.00
2018-10-05T16:23:07.256Z,3.30
2018-10-05T16:25:35.953Z,3.73
2018-10-05T16:28:04.454Z,3.50
2018-10-05T16:30:32.821Z,3.33
2018-10-05T16:33:01.164Z,4.47
2018-10-05T16:35:29.652Z,3.50
2018-10-05T16:37:58.072Z,3.87
2018-10-05T16:40:26.413Z,3.40
2018-10-05T16:42:54.807Z,3.73
2018-10-05T16:45:23.192Z,3.63
2018-10-05T16:47:51.690Z,4.07
2018-10-05T16:50:20.125Z,3.87
2018-10-05T16:52:48.528Z,3.37
2018-10-05T16:55:16.956Z,4.17
2018-10-05T16:57:45.408Z,3.93
2018-10-05T17:00:13.768Z,4.17
2018-10-05T17:02:42.141Z,4.20
2018-10-05T17:05:10.540Z,5.00
2018-10-05T17:07:38.892Z,4.93
2018-10-05T17:10:07.240Z,3.80
2018-10-05T17:12:36.729Z,4.87
2018-10-05T17:15:06.020Z,4.70
2018-10-05T17:17:34.443Z,4.60
2018-10-05T17:20:02.859Z,4.10
2018-10-05T17:22:31.236Z,3.77
2018-10-05T17:24:59.627Z,6.37
2018-10-05T17:27:28.304Z,4.20
2018-10-05T17:29:56.677Z,4.80
2018-10-05T17:32:25.063Z,4.63
2018-10-05T17:34:53.455Z,4.60
2018-10-05T17:37:21.924Z,4.40
2018-10-05T17:39:50.646Z,4.60
2018-10-05T17:42:19.104Z,4.57
2018-10-05T17:44:47.564Z,5.50
2018-10-05T17:47:15.964Z,5.63
2018-10-05T17:49:44.308Z,5.10
2018-10-05T17:52:12.781Z,5.13
2018-10-05T17:54:41.212Z,4.90
2018-10-05T17:57:09.713Z,5.40
2018-10-05T17:59:38.345Z,5.03
2018-10-05T18:02:06.918Z,4.70
2018-10-05T18:04:35.272Z,5.10
2018-10-05T18:07:03.676Z,5.30
2018-10-05T18:09:32.076Z,4.93
2018-10-05T18:12:00.484Z,4.93
2018-10-05T18:14:28.904Z,6.67
2018-10-05T18:16:57.769Z,6.50
2018-10-05T18:19:26.156Z,6.23
2018-10-05T18:21:54.552Z,6.80
2018-10-05T18:24:22.968Z,7.67
2018-10-05T18:26:51.319Z,6.27
2018-10-05T18:29:19.749Z,6.40
2018-10-05T18:31:48.227Z,7.17
2018-10-05T18:34:16.666Z,6.63
2018-10-05T18:36:45.045Z,7.00
2018-10-05T18:39:13.492Z,7.27
2018-10-05T18:41:42.036Z,6.53
2018-10-05T18:44:10.511Z,5.43
2018-10-05T18:46:39.179Z,6.80
2018-10-05T18:49:07.611Z,6.60
2018-10-05T18:51:36.076Z,5.47
2018-10-05T18:54:04.744Z,5.90
2018-10-05T18:56:44.654Z,6.10
2018-10-05T18:59:13.199Z,6.40
2018-10-05T19:01:41.676Z,5.93
2018-10-05T19:04:10.124Z,6.00
2018-10-05T19:06:38.496Z,6.17
2018-10-05T19:09:07.268Z,6.03
2018-10-05T19:11:36.393Z,6.37
2018-10-05T19:14:04.816Z,6.40
2018-10-05T19:16:33.281Z,6.50
2018-10-05T19:19:01.775Z,6.40
2018-10-05T19:21:30.239Z,7.07
2018-10-05T19:23:58.741Z,6.63
2018-10-05T19:26:27.282Z,6.87
2018-10-05T19:28:55.632Z,7.30
2018-10-05T19:31:24.073Z,6.50
2018-10-05T19:33:52.772Z,6.67
2018-10-05T19:36:21.215Z,7.30
2018-10-05T19:38:49.592Z,8.27
2018-10-05T19:41:18.317Z,16.60
2018-10-05T19:43:46.884Z,6.70
2018-10-05T19:46:15.350Z,7.10
2018-10-05T19:48:43.842Z,8.03
2018-10-05T19:51:12.455Z,7.77
2018-10-05T19:53:40.970Z,6.30
2018-10-05T19:56:09.696Z,7.80
2018-10-05T19:58:38.406Z,7.73
2018-10-05T20:01:06.909Z,6.70
2018-10-05T20:03:35.333Z,12.40
2018-10-05T20:06:03.684Z,9.40
2018-10-05T20:08:32.344Z,7.70
2018-10-05T20:11:00.789Z,7.70
2018-10-05T20:13:29.319Z,7.73
2018-10-05T20:15:57.700Z,7.07
2018-10-05T20:18:26.410Z,8.90
2018-10-05T20:20:54.805Z,7.50
2018-10-05T20:23:23.184Z,8.27
2018-10-05T20:25:51.764Z,6.97
2018-10-05T20:28:20.145Z,7.10
2018-10-05T20:30:48.495Z,7.60
2018-10-05T20:33:17.067Z,8.13
2018-10-05T20:35:45.489Z,7.57
2018-10-05T20:38:14.948Z,7.60
2018-10-05T20:40:44.384Z,7.80
2018-10-05T20:43:12.852Z,8.20
2018-10-05T20:45:41.280Z,6.50
2018-10-05T20:48:10.321Z,20.13
2018-10-05T20:50:38.910Z,7.93
2018-10-05T20:53:07.292Z,8.10
2018-10-05T20:55:35.627Z,7.90
2018-10-05T20:58:04.094Z,8.40
2018-10-05T21:00:32.539Z,9.00
2018-10-05T21:03:00.912Z,8.70
2018-10-05T21:05:29.296Z,8.07
2018-10-05T21:07:57.692Z,9.50
2018-10-05T21:10:26.171Z,9.40
2018-10-05T21:12:54.552Z,8.73
2018-10-05T21:15:23.076Z,9.70
2018-10-05T21:17:51.493Z,9.17
2018-10-05T21:20:19.845Z,8.43
2018-10-05T21:22:48.516Z,8.67
2018-10-05T21:25:16.936Z,9.07
2018-10-05T21:27:45.423Z,9.47
2018-10-05T21:30:13.793Z,8.50
2018-10-05T21:32:42.288Z,8.40
2018-10-05T21:35:10.680Z,8.77
2018-10-05T21:37:39.129Z,7.30
2018-10-05T21:40:07.984Z,8.40
2018-10-05T21:42:36.570Z,8.57
2018-10-05T21:45:05.177Z,8.43
2018-10-05T21:47:33.592Z,7.90
2018-10-05T21:50:01.970Z,8.90
2018-10-05T21:52:30.372Z,7.73
2018-10-05T21:54:58.716Z,7.93
2018-10-05T21:57:27.253Z,8.10
2018-10-05T21:59:55.675Z,8.07
2018-10-05T22:02:25.219Z,8.53
2018-10-05T22:04:53.700Z,8.67
2018-10-05T22:07:22.153Z,7.53
2018-10-05T22:09:50.524Z,8.23
2018-10-05T22:12:18.908Z,7.87
2018-10-05T22:14:47.596Z,8.23
2018-10-05T22:17:16.068Z,8.13
2018-10-05T22:19:44.518Z,7.77
2018-10-05T22:22:13.182Z,7.70
2018-10-05T22:24:41.631Z,8.00
2018-10-05T22:27:10.016Z,8.70
2018-10-05T22:29:38.384Z,8.70
2018-10-05T22:32:06.982Z,8.50
2018-10-05T22:34:35.379Z,7.60
2018-10-05T22:37:03.808Z,8.37
2018-10-05T22:39:32.620Z,7.90
2018-10-05T22:42:01.000Z,8.50
2018-10-05T22:44:29.476Z,8.10
2018-10-05T22:46:58.475Z,8.73
2018-10-05T22:49:27.034Z,7.80
2018-10-05T22:51:55.408Z,7.80
2018-10-05T22:54:23.928Z,8.23
2018-10-05T22:56:52.536Z,8.53
2018-10-05T22:59:20.956Z,7.90
2018-10-05T23:01:49.357Z,9.50
2018-10-05T23:04:17.756Z,8.83
2018-10-05T23:06:46.108Z,8.30
2018-10-05T23:09:14.515Z,10.00
2018-10-05T23:11:42.888Z,9.07
2018-10-05T23:14:11.244Z,8.70
2018-10-05T23:16:39.624Z,8.67
2018-10-05T23:19:08.025Z,7.70
2018-10-05T23:21:36.753Z,8.47
2018-10-05T23:24:05.181Z,8.27
2018-10-05T23:26:33.556Z,8.27
2018-10-05T23:29:01.931Z,7.83
2018-10-05T23:31:30.303Z,7.77
2018-10-05T23:33:58.657Z,7.90
2018-10-05T23:37:51.605Z,6.77
2018-10-05T23:40:20.049Z,7.20
2018-10-05T23:42:48.392Z,7.90
2018-10-05T23:45:16.999Z,7.27
2018-10-05T23:47:45.380Z,7.40
2018-10-05T23:50:13.748Z,6.70
2018-10-05T23:52:44.292Z,7.17
2018-10-05T23:55:12.664Z,6.87
2018-10-05T23:57:41.667Z,6.90
